Terminal Aerodrome Forecast
Issued by NWS

Home | Current Version | Previous Version | Graphics & Text | Print | Product List | Glossary On
Versions: 1 2 3 4 5 6 7 8 9 10 11 12 13 14 15 16 17 18 19 20 21 22 23
000
FTUS43 KBIS 291100
TAFDIK
TAF
KDIK 291138Z 2912/3012 09010KT P6SM OVC006
     FM291700 12018G24KT P6SM -SHRA SCT006 BKN012
     FM300100 13012KT P6SM -SHRA VCTS BKN005 BKN010 OVC020CB=

USA.gov is the U.S. government's official web portal to all federal, state and local government web resources and services.